createdAt,value
2019-05-14T00:01:07.345Z,73.69
2019-05-14T00:04:04.272Z,74.00
2019-05-14T00:07:01.119Z,74.19
2019-05-14T00:09:57.384Z,74.98
2019-05-14T00:12:53.879Z,74.58
2019-05-14T00:15:52.162Z,74.04
2019-05-14T00:18:47.766Z,73.44
2019-05-14T00:21:44.352Z,74.03
2019-05-14T00:24:41.634Z,75.54
2019-05-14T00:27:36.559Z,76.80
2019-05-14T00:30:34.338Z,76.95
2019-05-14T00:33:31.652Z,77.72
2019-05-14T00:36:26.918Z,78.14
2019-05-14T00:39:32.065Z,79.13
2019-05-14T00:42:26.643Z,79.06
2019-05-14T00:45:23.499Z,79.80
2019-05-14T00:48:22.177Z,79.49
2019-05-14T00:51:16.998Z,80.03
2019-05-14T00:54:14.981Z,80.03
2019-05-14T00:57:11.940Z,80.65
2019-05-14T01:00:17.482Z,81.25
2019-05-14T01:03:13.263Z,81.89
2019-05-14T01:06:14.068Z,82.47
2019-05-14T01:09:11.886Z,82.79
2019-05-14T01:12:07.713Z,83.13
2019-05-14T01:15:09.787Z,83.61
2019-05-14T01:18:02.213Z,83.83
2019-05-14T01:21:01.114Z,84.82
2019-05-14T01:23:54.705Z,84.73
2019-05-14T01:26:54.874Z,84.90
2019-05-14T01:29:52.841Z,85.13
2019-05-14T01:32:51.208Z,84.70
2019-05-14T01:35:46.107Z,84.72
2019-05-14T01:38:46.902Z,85.07
2019-05-14T01:41:51.711Z,86.11
2019-05-14T01:44:46.149Z,86.21
2019-05-14T01:47:41.799Z,85.88
2019-05-14T01:50:41.425Z,86.13
2019-05-14T01:53:35.799Z,86.77
2019-05-14T01:56:33.905Z,87.37
2019-05-14T01:59:32.175Z,87.84
2019-05-14T02:02:31.888Z,87.91
2019-05-14T02:05:30.936Z,88.17
2019-05-14T02:08:24.994Z,88.55
2019-05-14T02:11:22.796Z,88.45
2019-05-14T02:14:18.315Z,88.83
2019-05-14T02:17:16.017Z,89.59
2019-05-14T02:20:12.594Z,89.89
2019-05-14T02:23:08.396Z,90.06
2019-05-14T02:26:05.032Z,90.40
2019-05-14T02:29:01.944Z,91.00
2019-05-14T02:31:59.001Z,90.68
2019-05-14T02:34:53.522Z,90.91
2019-05-14T02:37:51.729Z,90.93
2019-05-14T02:40:49.798Z,90.94
2019-05-14T02:43:45.150Z,91.51
2019-05-14T02:46:41.827Z,91.51
2019-05-14T02:49:39.700Z,91.72
2019-05-14T02:52:34.212Z,91.97
2019-05-14T02:55:30.120Z,91.98
2019-05-14T02:58:29.538Z,91.51
2019-05-14T03:01:30.183Z,91.75
2019-05-14T03:04:24.994Z,91.77
2019-05-14T03:07:21.842Z,91.73
2019-05-14T03:10:19.446Z,91.78
2019-05-14T03:13:23.910Z,91.97
2019-05-14T03:16:30.387Z,92.00
2019-05-14T03:19:19.654Z,92.02
2019-05-14T03:22:15.320Z,92.21
2019-05-14T03:25:11.232Z,89.45
2019-05-14T03:28:09.252Z,89.14
2019-05-14T03:31:05.018Z,89.64
2019-05-14T03:34:03.539Z,89.81
2019-05-14T03:37:03.468Z,89.47
2019-05-14T03:39:54.003Z,89.94
2019-05-14T03:42:51.686Z,89.48
2019-05-14T03:45:49.563Z,87.90
2019-05-14T03:48:44.930Z,88.18
2019-05-14T03:51:41.561Z,89.05
2019-05-14T03:54:45.548Z,88.21
2019-05-14T03:57:42.843Z,88.52
2019-05-14T04:00:50.488Z,89.46
2019-05-14T04:03:46.431Z,90.14
2019-05-14T04:06:43.578Z,90.00
2019-05-14T04:09:41.417Z,89.95
2019-05-14T04:12:40.380Z,90.15
2019-05-14T04:15:39.036Z,90.82
2019-05-14T04:18:32.385Z,90.95
2019-05-14T04:21:33.146Z,90.69
2019-05-14T04:24:29.646Z,90.40
2019-05-14T04:27:24.650Z,90.52
2019-05-14T04:30:24.387Z,90.10
2019-05-14T04:33:19.095Z,89.31
2019-05-14T04:36:25.005Z,87.12
2019-05-14T04:39:23.112Z,87.15
2019-05-14T04:42:20.526Z,86.60
2019-05-14T04:45:21.933Z,84.63
2019-05-14T04:48:28.950Z,84.43
2019-05-14T04:51:10.693Z,85.03
2019-05-14T04:54:09.426Z,85.24
2019-05-14T04:57:09.753Z,83.62
2019-05-14T05:00:13.436Z,83.48
2019-05-14T05:03:13.164Z,83.33
2019-05-14T05:06:09.921Z,84.39
2019-05-14T05:09:04.757Z,84.16
2019-05-14T05:12:02.033Z,83.97
2019-05-14T05:15:00.975Z,83.87
2019-05-14T05:17:58.947Z,83.46
2019-05-14T05:20:55.278Z,83.00
2019-05-14T05:23:58.532Z,83.03
2019-05-14T05:27:01.341Z,83.83
2019-05-14T05:29:59.030Z,81.27
2019-05-14T05:32:54.962Z,80.16
2019-05-14T05:35:51.558Z,77.84
2019-05-14T05:38:49.226Z,79.50
2019-05-14T05:41:44.226Z,78.84
2019-05-14T05:44:41.097Z,77.50
2019-05-14T05:47:39.080Z,77.31
2019-05-14T05:50:33.830Z,78.11
2019-05-14T05:53:32.903Z,76.12
2019-05-14T05:56:29.678Z,77.25
2019-05-14T05:59:29.002Z,77.01
2019-05-14T06:02:25.132Z,77.39
2019-05-14T06:05:24.492Z,75.99
2019-05-14T06:08:19.545Z,74.53
2019-05-14T06:11:23.875Z,75.41
2019-05-14T06:14:32.949Z,73.86
2019-05-14T06:17:29.116Z,69.74
2019-05-14T06:20:28.158Z,71.40
2019-05-14T06:23:24.037Z,70.15
2019-05-14T06:26:19.797Z,70.93
2019-05-14T06:29:18.512Z,68.47
2019-05-14T06:32:12.218Z,65.70
2019-05-14T06:35:15.364Z,66.10
2019-05-14T06:38:10.569Z,67.03
2019-05-14T06:41:08.389Z,66.58
2019-05-14T06:44:05.214Z,64.62
2019-05-14T06:47:04.037Z,64.50
2019-05-14T06:50:01.186Z,65.15
2019-05-14T06:52:58.105Z,65.09
2019-05-14T06:55:54.178Z,65.42
2019-05-14T06:58:50.164Z,64.67
2019-05-14T07:01:48.958Z,62.62
2019-05-14T07:04:43.828Z,62.03
2019-05-14T07:07:52.614Z,59.53
2019-05-14T07:10:49.336Z,59.94
2019-05-14T07:13:46.060Z,60.22
2019-05-14T07:16:48.517Z,60.60
2019-05-14T07:19:45.028Z,59.56
2019-05-14T07:22:41.566Z,59.00
2019-05-14T07:25:40.942Z,58.49
2019-05-14T07:28:42.124Z,57.70
2019-05-14T07:31:34.450Z,59.00
2019-05-14T07:34:30.892Z,58.18
2019-05-14T07:37:28.534Z,57.88
2019-05-14T07:40:24.320Z,59.34
2019-05-14T07:43:20.031Z,60.59
2019-05-14T07:46:18.849Z,59.84
2019-05-14T07:49:13.544Z,59.84
2019-05-14T07:52:10.296Z,60.15
2019-05-14T07:55:09.260Z,58.72
2019-05-14T07:58:04.605Z,60.04
2019-05-14T08:00:59.375Z,60.06
2019-05-14T08:03:59.944Z,58.10
2019-05-14T08:06:52.964Z,57.90
2019-05-14T08:09:49.713Z,58.33
2019-05-14T08:12:52.138Z,59.00
2019-05-14T08:15:50.110Z,58.88
2019-05-14T08:18:48.468Z,58.36
2019-05-14T08:21:42.839Z,58.43
2019-05-14T08:24:39.518Z,60.64
2019-05-14T08:27:38.857Z,59.19
2019-05-14T08:30:33.681Z,58.83
2019-05-14T08:33:35.426Z,58.34
2019-05-14T08:36:31.144Z,58.83
2019-05-14T08:39:28.699Z,59.57
2019-05-14T08:42:24.242Z,57.64
2019-05-14T08:45:21.069Z,53.78
2019-05-14T08:48:19.168Z,55.70
2019-05-14T08:51:18.480Z,52.29
2019-05-14T08:54:12.341Z,53.85
2019-05-14T08:57:09.816Z,54.35
2019-05-14T09:00:13.474Z,53.22
2019-05-14T09:03:03.133Z,52.63
2019-05-14T09:06:00.838Z,53.01
2019-05-14T09:08:59.522Z,53.11
2019-05-14T09:11:53.647Z,53.50
2019-05-14T09:14:49.260Z,52.25
2019-05-14T09:17:48.532Z,54.06
2019-05-14T09:20:43.331Z,51.66
2019-05-14T09:23:40.028Z,51.90
2019-05-14T09:26:38.917Z,54.16
2019-05-14T09:29:33.679Z,52.48
2019-05-14T09:32:29.407Z,51.62
2019-05-14T09:35:29.201Z,51.49
2019-05-14T09:38:24.662Z,48.57
2019-05-14T09:41:21.294Z,49.50
2019-05-14T09:44:18.744Z,54.40
2019-05-14T09:47:20.626Z,57.31
2019-05-14T09:50:19.170Z,54.90
2019-05-14T09:53:10.964Z,56.50
2019-05-14T09:56:12.704Z,58.96
2019-05-14T09:59:09.348Z,55.42
2019-05-14T10:02:05.826Z,54.71
2019-05-14T10:05:01.467Z,53.38
2019-05-14T10:07:59.473Z,52.19
2019-05-14T10:10:54.872Z,48.58
2019-05-14T10:13:52.443Z,46.20
2019-05-14T10:16:50.218Z,47.15
2019-05-14T10:19:49.732Z,46.44
2019-05-14T10:22:44.982Z,46.66
2019-05-14T10:25:42.731Z,44.28
2019-05-14T10:28:43.456Z,46.09
2019-05-14T10:31:39.771Z,45.35
2019-05-14T10:34:34.255Z,47.59
2019-05-14T10:37:33.691Z,47.67
2019-05-14T10:40:31.569Z,50.04
2019-05-14T10:43:28.804Z,47.99
2019-05-14T10:46:29.199Z,47.06
2019-05-14T10:49:29.713Z,46.85
2019-05-14T10:52:25.008Z,46.93
2019-05-14T10:55:22.602Z,44.66
2019-05-14T10:58:20.868Z,46.21
2019-05-14T11:01:22.293Z,47.06
2019-05-14T11:04:15.346Z,45.63
2019-05-14T11:07:12.709Z,45.31
2019-05-14T11:10:11.204Z,44.96
2019-05-14T11:13:09.193Z,45.10
2019-05-14T11:16:08.403Z,43.51
2019-05-14T11:19:02.886Z,45.00
2019-05-14T11:22:00.324Z,48.02
2019-05-14T11:24:59.169Z,46.78
2019-05-14T11:27:58.771Z,46.21
2019-05-14T11:30:55.687Z,46.06
2019-05-14T11:33:52.204Z,46.05
2019-05-14T11:36:50.023Z,47.75
2019-05-14T11:39:49.894Z,47.98
2019-05-14T11:42:49.487Z,48.51
2019-05-14T11:45:44.167Z,43.84
2019-05-14T11:48:44.716Z,45.35
2019-05-14T11:51:59.602Z,45.43
2019-05-14T11:54:43.376Z,42.92
2019-05-14T11:57:43.024Z,44.20
2019-05-14T12:00:39.653Z,41.79
2019-05-14T12:03:39.466Z,42.45
2019-05-14T12:06:39.061Z,39.96
2019-05-14T12:09:39.054Z,43.28
2019-05-14T12:12:41.220Z,43.42
2019-05-14T12:15:43.332Z,42.86
2019-05-14T12:18:42.050Z,45.52
2019-05-14T12:21:39.925Z,41.18
2019-05-14T12:24:38.752Z,41.27
2019-05-14T12:27:33.537Z,41.60
2019-05-14T12:30:31.291Z,43.30
2019-05-14T12:33:34.903Z,44.07
2019-05-14T12:36:29.262Z,41.77
2019-05-14T12:39:24.911Z,42.60
2019-05-14T12:42:21.343Z,39.70
2019-05-14T12:45:21.083Z,40.96
2019-05-14T12:48:22.759Z,43.19
2019-05-14T12:51:23.070Z,42.31
2019-05-14T12:54:20.077Z,44.54
2019-05-14T12:57:18.938Z,41.23
2019-05-14T13:00:15.415Z,41.23
2019-05-14T13:03:20.758Z,40.57
2019-05-14T13:06:19.235Z,42.78
2019-05-14T13:09:19.126Z,43.20
2019-05-14T13:12:14.155Z,41.29
2019-05-14T13:15:15.536Z,42.68
2019-05-14T13:18:15.399Z,42.64
2019-05-14T13:21:11.927Z,39.79
2019-05-14T13:24:09.466Z,39.75
2019-05-14T13:27:11.404Z,40.46
2019-05-14T13:30:13.541Z,40.59
2019-05-14T13:33:11.042Z,40.80
2019-05-14T13:36:07.555Z,38.93
2019-05-14T13:39:09.225Z,43.22
2019-05-14T13:42:11.914Z,39.97
2019-05-14T13:45:03.579Z,36.47
2019-05-14T13:48:04.625Z,37.27
2019-05-14T13:51:04.279Z,36.84
2019-05-14T13:54:02.078Z,35.69
2019-05-14T13:56:58.624Z,34.43
2019-05-14T13:59:59.024Z,33.43
2019-05-14T14:02:59.008Z,37.04
2019-05-14T14:05:54.343Z,39.50
2019-05-14T14:08:52.089Z,41.71
2019-05-14T14:11:48.379Z,43.68
2019-05-14T14:14:49.083Z,44.48
2019-05-14T14:17:44.798Z,44.93
2019-05-14T14:20:48.850Z,45.43
2019-05-14T14:23:43.680Z,42.89
2019-05-14T14:26:41.356Z,40.49
2019-05-14T14:29:39.548Z,39.23
2019-05-14T14:32:35.194Z,35.40
2019-05-14T14:35:32.751Z,35.31
2019-05-14T14:38:35.039Z,34.79
2019-05-14T14:41:33.820Z,33.98
2019-05-14T14:44:30.720Z,34.00
2019-05-14T14:47:29.306Z,33.37
2019-05-14T14:50:28.966Z,33.87
2019-05-14T14:53:41.306Z,33.34
2019-05-14T14:56:22.165Z,36.18
2019-05-14T14:59:19.293Z,34.79
2019-05-14T15:02:19.862Z,33.60
2019-05-14T15:05:15.661Z,35.09
2019-05-14T15:08:12.540Z,37.33
2019-05-14T15:11:09.183Z,39.54
2019-05-14T15:14:08.436Z,40.21
2019-05-14T15:17:05.190Z,41.90
2019-05-14T15:20:02.740Z,44.03
2019-05-14T15:23:01.813Z,49.82
2019-05-14T15:26:02.023Z,54.00
2019-05-14T15:29:00.535Z,53.83
2019-05-14T15:31:59.166Z,55.47
2019-05-14T15:34:55.345Z,55.58
2019-05-14T15:38:00.430Z,55.06
2019-05-14T15:40:59.558Z,56.13
2019-05-14T15:43:54.282Z,54.13
2019-05-14T15:46:50.398Z,53.71
2019-05-14T15:49:48.862Z,51.86
2019-05-14T15:52:48.693Z,53.19
2019-05-14T15:55:49.052Z,51.34
2019-05-14T15:58:45.457Z,53.01
2019-05-14T16:01:46.656Z,52.11
2019-05-14T16:04:45.215Z,50.76
2019-05-14T16:07:43.002Z,47.01
2019-05-14T16:10:40.852Z,47.95
2019-05-14T16:13:39.810Z,49.27
2019-05-14T16:16:36.217Z,49.49
2019-05-14T16:19:34.125Z,48.49
2019-05-14T16:22:33.690Z,49.05
2019-05-14T16:25:31.309Z,50.63
2019-05-14T16:28:30.955Z,49.92
2019-05-14T16:31:31.793Z,50.38
2019-05-14T16:34:28.826Z,51.54
2019-05-14T16:37:28.068Z,49.29
2019-05-14T16:40:22.089Z,50.56
2019-05-14T16:43:19.426Z,52.50
2019-05-14T16:46:20.816Z,51.11
2019-05-14T16:49:18.518Z,53.36
2019-05-14T16:52:14.708Z,52.52
2019-05-14T16:55:23.122Z,53.42
2019-05-14T16:58:09.521Z,53.73
2019-05-14T17:01:05.007Z,54.20
2019-05-14T17:04:03.538Z,53.49
2019-05-14T17:07:00.404Z,54.32
2019-05-14T17:09:58.136Z,54.50
2019-05-14T17:12:57.435Z,54.63
2019-05-14T17:15:51.045Z,55.09
2019-05-14T17:18:48.794Z,55.05
2019-05-14T17:21:48.692Z,54.17
2019-05-14T17:24:43.861Z,54.02
2019-05-14T17:27:41.280Z,51.50
2019-05-14T17:30:38.730Z,51.14
2019-05-14T17:33:39.194Z,50.37
2019-05-14T17:36:32.683Z,51.51
2019-05-14T17:39:31.021Z,51.51
2019-05-14T17:42:29.397Z,51.04
2019-05-14T17:45:28.419Z,53.34
2019-05-14T17:48:24.245Z,52.21
2019-05-14T17:51:20.755Z,52.66
2019-05-14T17:54:18.687Z,55.23
2019-05-14T17:57:14.767Z,55.23
2019-05-14T18:00:12.009Z,57.55
2019-05-14T18:03:08.963Z,58.55
2019-05-14T18:06:08.992Z,59.54
2019-05-14T18:09:03.806Z,61.46
2019-05-14T18:12:01.949Z,63.69
2019-05-14T18:14:58.920Z,64.64
2019-05-14T18:17:58.657Z,64.54
2019-05-14T18:20:52.299Z,64.57
2019-05-14T18:23:49.304Z,67.07
2019-05-14T18:26:44.156Z,66.62
2019-05-14T18:29:42.461Z,66.68
2019-05-14T18:32:39.186Z,66.94
2019-05-14T18:35:45.073Z,66.94
2019-05-14T18:38:33.818Z,68.11
2019-05-14T18:41:31.442Z,68.05
2019-05-14T18:44:28.501Z,67.85
2019-05-14T18:47:29.094Z,68.46
2019-05-14T18:50:23.706Z,68.45
2019-05-14T18:53:20.380Z,68.83
2019-05-14T18:56:23.866Z,69.58
2019-05-14T18:59:14.665Z,70.61
2019-05-14T19:02:12.132Z,71.73
2019-05-14T19:05:11.721Z,72.53
2019-05-14T19:08:08.094Z,73.99
2019-05-14T19:11:05.487Z,74.22
2019-05-14T19:14:00.598Z,75.09
2019-05-14T19:17:03.350Z,76.26
2019-05-14T19:19:55.257Z,76.91
2019-05-14T19:22:52.433Z,77.94
2019-05-14T19:25:49.614Z,78.55
2019-05-14T19:28:48.481Z,78.67
2019-05-14T19:31:47.944Z,78.73
2019-05-14T19:34:43.739Z,79.70
2019-05-14T19:37:39.515Z,80.40
2019-05-14T19:40:38.969Z,80.10
2019-05-14T19:43:31.402Z,80.72
2019-05-14T19:46:29.170Z,80.31
2019-05-14T19:49:33.532Z,80.25
2019-05-14T19:52:29.265Z,80.77
2019-05-14T19:55:28.578Z,81.07
2019-05-14T19:58:21.645Z,81.69
2019-05-14T20:01:21.754Z,82.29
2019-05-14T20:04:32.189Z,81.17
2019-05-14T20:07:28.054Z,81.54
2019-05-14T20:10:24.623Z,81.56
2019-05-14T20:13:30.736Z,81.66
2019-05-14T20:16:28.675Z,81.36
2019-05-14T20:19:24.383Z,82.32
2019-05-14T20:22:22.253Z,81.25
2019-05-14T20:25:18.922Z,80.99
2019-05-14T20:28:15.905Z,80.58
2019-05-14T20:31:12.832Z,80.14
2019-05-14T20:34:08.839Z,79.75
2019-05-14T20:37:08.295Z,79.55
2019-05-14T20:40:02.480Z,79.88
2019-05-14T20:43:01.446Z,79.11
2019-05-14T20:45:59.466Z,78.94
2019-05-14T20:48:54.759Z,79.33
2019-05-14T20:51:50.557Z,79.32
2019-05-14T20:54:47.751Z,79.38
2019-05-14T20:57:43.153Z,79.81
2019-05-14T21:00:48.306Z,80.19
2019-05-14T21:03:44.048Z,80.75
2019-05-14T21:06:39.664Z,81.23
2019-05-14T21:09:35.293Z,81.15
2019-05-14T21:12:32.111Z,81.92
2019-05-14T21:15:28.990Z,81.95
2019-05-14T21:18:34.721Z,82.09
2019-05-14T21:21:23.830Z,82.75
2019-05-14T21:24:21.928Z,82.86
2019-05-14T21:27:21.229Z,82.59
2019-05-14T21:30:13.991Z,83.16
2019-05-14T21:33:11.811Z,82.68
2019-05-14T21:36:12.284Z,82.89
2019-05-14T21:39:07.946Z,83.04
2019-05-14T21:42:01.600Z,83.23
2019-05-14T21:44:58.553Z,82.66
2019-05-14T21:47:55.414Z,82.85
2019-05-14T21:50:52.225Z,82.40
2019-05-14T21:53:48.421Z,82.96
2019-05-14T21:56:45.972Z,83.02
2019-05-14T21:59:42.841Z,82.97
2019-05-14T22:02:38.745Z,83.22
2019-05-14T22:05:35.242Z,82.93
2019-05-14T22:08:30.858Z,83.20
2019-05-14T22:11:28.229Z,83.17
2019-05-14T22:14:24.101Z,83.81
2019-05-14T22:17:20.796Z,83.24
2019-05-14T22:20:28.863Z,83.38
2019-05-14T22:23:23.438Z,83.08
2019-05-14T22:26:31.355Z,83.22
2019-05-14T22:29:28.619Z,83.63
2019-05-14T22:32:24.509Z,84.03
2019-05-14T22:35:21.087Z,83.78
2019-05-14T22:38:19.984Z,84.14
2019-05-14T22:41:13.275Z,84.16
2019-05-14T22:44:09.715Z,84.60
2019-05-14T22:47:08.116Z,84.41
2019-05-14T22:50:01.955Z,84.68
2019-05-14T22:52:58.755Z,84.48
2019-05-14T22:55:53.972Z,84.98
2019-05-14T22:58:50.647Z,84.68
2019-05-14T23:01:48.065Z,85.14
2019-05-14T23:04:42.845Z,85.89
2019-05-14T23:07:40.042Z,85.83
2019-05-14T23:10:35.527Z,84.55
2019-05-14T23:13:32.153Z,85.07
2019-05-14T23:16:34.182Z,85.48
2019-05-14T23:19:32.450Z,85.31
2019-05-14T23:22:29.720Z,84.85
2019-05-14T23:25:24.886Z,85.32
2019-05-14T23:28:37.937Z,85.83
2019-05-14T23:31:21.376Z,85.90
2019-05-14T23:34:19.044Z,86.24
2019-05-14T23:37:18.170Z,86.05
2019-05-14T23:40:10.944Z,86.24
2019-05-14T23:43:07.488Z,86.24
2019-05-14T23:46:03.368Z,86.13
2019-05-14T23:49:00.876Z,86.05
2019-05-14T23:51:57.442Z,86.49
2019-05-14T23:54:53.279Z,86.50
2019-05-14T23:57:51.287Z,87.19
